Time;durP1;ratioP1;P1;durP2;ratioP2;P2;SDS_P1;SDS_P2;PMS_P1;PMS_P2;Temp;Humidity;BMP_temperature;BMP_pressure;BME280_temperature;BME280_humidity;BME280_pressure;Samples;Min_cycle;Max_cycle;Signal;HPM_P1;HPM_P2
2021/09/13 00:00:53;;;;;;;7.87;4.07;;;;;;;13.12;100.00;96400.47;5004474;28;20025;-83
2021/09/13 00:03:20;;;;;;;7.37;4.83;;;;;;;13.11;100.00;96397.97;5012013;28;20039;-83
2021/09/13 00:05:46;;;;;;;7.13;4.80;;;;;;;13.03;100.00;96400.66;5012913;28;20029;-83
2021/09/13 00:08:12;;;;;;;8.20;4.40;;;;;;;13.11;100.00;96397.97;5007870;28;20096;-84
2021/09/13 00:10:38;;;;;;;8.67;4.43;;;;;;;13.13;100.00;96401.28;5000761;28;20029;-84
2021/09/13 00:13:05;;;;;;;7.27;4.80;;;;;;;13.08;100.00;96404.47;4989213;28;20057;-83
2021/09/13 00:15:49;;;;;;;7.70;4.37;;;;;;;13.00;100.00;96406.28;5003010;28;20045;-83
2021/09/13 00:18:15;;;;;;;8.23;5.13;;;;;;;12.98;100.00;96409.09;5018918;28;20018;-83
2021/09/13 00:20:42;;;;;;;6.73;4.60;;;;;;;12.94;100.00;96408.63;5000853;28;20025;-83
2021/09/13 00:23:08;;;;;;;6.13;4.00;;;;;;;12.84;100.00;96401.88;5009996;28;20036;-83
2021/09/13 00:25:34;;;;;;;7.70;4.23;;;;;;;12.87;100.00;96404.19;5008014;28;20024;-83
2021/09/13 00:28:00;;;;;;;8.07;4.27;;;;;;;12.88;100.00;96408.47;5001037;28;20071;-83
2021/09/13 00:30:28;;;;;;;7.00;4.17;;;;;;;12.76;100.00;96407.19;5002330;28;20029;-83
2021/09/13 00:32:55;;;;;;;8.53;4.17;;;;;;;12.73;100.00;96405.69;5026966;28;20131;-83
2021/09/13 00:35:24;;;;;;;6.03;3.93;;;;;;;12.84;100.00;96402.69;4990517;28;20014;-83
2021/09/13 00:37:52;;;;;;;9.17;4.80;;;;;;;12.61;100.00;96402.59;5006870;28;20112;-83
2021/09/13 00:40:18;;;;;;;7.37;4.73;;;;;;;12.49;100.00;96394.19;5004419;28;20021;-83
2021/09/13 00:42:44;;;;;;;7.90;4.23;;;;;;;12.48;100.00;96387.28;5008479;28;20060;-82
2021/09/13 00:45:11;;;;;;;8.30;4.93;;;;;;;12.47;100.00;96395.34;4997080;28;20022;-83
2021/09/13 00:51:26;;;;;;;8.87;5.20;;;;;;;12.45;100.00;96392.06;5021452;28;20526;-83
2021/09/13 00:53:52;;;;;;;8.17;5.10;;;;;;;12.46;100.00;96389.25;5025791;28;20372;-83
2021/09/13 00:56:18;;;;;;;7.57;5.13;;;;;;;12.46;100.00;96394.53;5007401;28;20037;-83
2021/09/13 00:58:45;;;;;;;6.70;4.77;;;;;;;12.50;100.00;96401.09;5000018;28;20099;-83
2021/09/13 01:01:11;;;;;;;5.97;4.00;;;;;;;12.63;100.00;96400.59;5003000;28;20026;-83
2021/09/13 01:03:37;;;;;;;7.87;4.33;;;;;;;12.77;100.00;96404.34;5013991;28;20034;-83
2021/09/13 01:06:04;;;;;;;6.13;3.73;;;;;;;12.76;100.00;96400.09;4997585;28;20491;-84
2021/09/13 01:08:30;;;;;;;8.63;5.53;;;;;;;12.68;100.00;96392.19;5003412;28;20088;-83
2021/09/13 01:10:56;;;;;;;7.20;4.20;;;;;;;12.63;100.00;96395.31;5032889;28;20426;-83
2021/09/13 01:13:23;;;;;;;7.60;4.80;;;;;;;12.57;100.00;96397.81;5009144;28;20403;-83
2021/09/13 01:15:49;;;;;;;8.43;4.77;;;;;;;12.55;100.00;96397.16;5014344;28;20028;-83
2021/09/13 01:18:14;;;;;;;8.30;4.33;;;;;;;12.58;100.00;96394.19;4990127;28;20431;-83
2021/09/13 01:20:41;;;;;;;7.57;4.40;;;;;;;12.66;100.00;96395.00;4997826;28;20041;-83
2021/09/13 01:23:09;;;;;;;6.83;4.03;;;;;;;12.83;100.00;96402.88;4998401;28;20073;-82
2021/09/13 01:25:36;;;;;;;6.53;4.07;;;;;;;12.80;100.00;96396.09;5006358;28;20049;-82
2021/09/13 01:28:06;;;;;;;5.87;3.90;;;;;;;12.85;100.00;96383.25;5003573;28;20033;-83
2021/09/13 01:30:33;;;;;;;7.30;3.93;;;;;;;12.79;100.00;96386.56;5008204;28;20038;-83
2021/09/13 01:32:58;;;;;;;6.90;4.17;;;;;;;12.74;100.00;96387.06;5005969;28;20096;-83
2021/09/13 01:35:26;;;;;;;6.57;4.87;;;;;;;12.46;100.00;96391.88;5006775;28;20431;-83
2021/09/13 01:37:55;;;;;;;9.77;4.70;;;;;;;12.67;100.00;96390.53;5006220;28;20076;-83
2021/09/13 01:40:21;;;;;;;6.83;4.87;;;;;;;12.48;100.00;96392.56;5006663;28;20483;-83
2021/09/13 01:42:47;;;;;;;6.57;4.57;;;;;;;12.50;100.00;96389.75;4992892;28;20445;-83
2021/09/13 01:45:13;;;;;;;7.73;4.63;;;;;;;12.56;100.00;96397.00;4999357;28;20044;-83
2021/09/13 01:47:43;;;;;;;7.90;4.33;;;;;;;12.56;100.00;96390.91;5015976;28;20048;-83
2021/09/13 01:50:11;;;;;;;6.80;4.50;;;;;;;12.52;100.00;96392.22;5028111;28;20032;-83
2021/09/13 01:52:41;;;;;;;7.30;4.80;;;;;;;12.31;100.00;96390.09;5014009;28;20025;-83
2021/09/13 01:55:07;;;;;;;7.73;4.40;;;;;;;12.24;100.00;96387.31;4991698;28;20700;-83
2021/09/13 01:57:33;;;;;;;9.47;3.87;;;;;;;12.25;100.00;96386.31;5012537;28;20083;-83
2021/09/13 01:59:59;;;;;;;6.63;4.60;;;;;;;12.23;100.00;96380.38;5003922;28;20033;-83
2021/09/13 02:02:28;;;;;;;8.33;4.20;;;;;;;12.25;100.00;96375.78;5005592;28;20013;-83
2021/09/13 02:04:54;;;;;;;8.07;4.60;;;;;;;12.25;100.00;96378.41;5002775;28;20025;-83
2021/09/13 02:07:22;;;;;;;6.90;4.80;;;;;;;12.33;100.00;96367.84;5014998;28;20235;-83
2021/09/13 02:09:52;;;;;;;6.53;4.37;;;;;;;12.21;100.00;96374.47;5037733;28;20033;-83
2021/09/13 02:12:18;;;;;;;8.20;4.47;;;;;;;12.32;100.00;96374.09;5014832;28;20021;-83
2021/09/13 02:14:44;;;;;;;8.40;4.47;;;;;;;12.39;100.00;96371.63;5010072;28;20030;-83
2021/09/13 02:17:10;;;;;;;8.47;4.87;;;;;;;12.47;100.00;96375.09;4992520;28;20082;-83
2021/09/13 02:19:35;;;;;;;6.20;4.00;;;;;;;12.45;100.00;96366.50;5014832;28;20116;-83
2021/09/13 02:22:01;;;;;;;8.07;4.00;;;;;;;12.52;100.00;96364.03;4996828;28;20395;-83
2021/09/13 02:25:12;;;;;;;6.17;3.93;;;;;;;12.46;100.00;96365.50;5021588;28;20036;-83
2021/09/13 02:27:39;;;;;;;6.77;4.47;;;;;;;12.40;100.00;96374.09;5029709;28;20025;-83
2021/09/13 02:30:06;;;;;;;7.03;4.47;;;;;;;12.46;100.00;96362.88;5011843;28;20032;-83
2021/09/13 02:32:41;;;;;;;8.60;5.00;;;;;;;12.36;100.00;96362.22;5021272;28;20140;-83
2021/09/13 02:35:08;;;;;;;6.77;4.57;;;;;;;12.24;100.00;96360.94;5012893;28;20029;-83
2021/09/13 02:37:37;;;;;;;7.17;5.03;;;;;;;12.31;100.00;96358.44;5014364;28;20040;-83
2021/09/13 02:40:05;;;;;;;6.43;4.27;;;;;;;12.38;100.00;96362.91;4999005;28;20125;-83
2021/09/13 02:42:32;;;;;;;6.97;4.23;;;;;;;12.29;100.00;96361.25;5002064;28;20639;-83
2021/09/13 02:44:58;;;;;;;7.67;4.47;;;;;;;12.22;100.00;96360.28;5034872;28;20021;-83
2021/09/13 02:47:24;;;;;;;8.33;3.93;;;;;;;12.23;100.00;96367.19;5000285;28;20025;-83
2021/09/13 02:49:50;;;;;;;6.77;4.10;;;;;;;12.31;100.00;96359.28;5013073;28;20029;-83
2021/09/13 02:52:19;;;;;;;14.67;5.43;;;;;;;12.27;100.00;96357.94;4992722;28;20126;-83
2021/09/13 02:54:45;;;;;;;5.33;3.77;;;;;;;12.21;100.00;96364.72;5018766;28;20034;-83
2021/09/13 02:57:11;;;;;;;7.43;4.47;;;;;;;12.15;100.00;96359.31;5009799;28;20468;-83
2021/09/13 02:59:36;;;;;;;6.00;4.23;;;;;;;12.10;100.00;96361.59;5010183;28;20048;-83
2021/09/13 03:02:02;;;;;;;7.17;4.67;;;;;;;12.00;100.00;96367.03;5021171;28;20033;-83
2021/09/13 03:04:29;;;;;;;6.83;4.67;;;;;;;12.03;100.00;96358.78;5013478;28;20438;-83
2021/09/13 03:06:55;;;;;;;8.80;5.17;;;;;;;11.96;100.00;96357.81;5002712;28;20033;-83
2021/09/13 03:09:21;;;;;;;9.40;5.60;;;;;;;12.03;100.00;96364.06;5000792;28;20042;-83
2021/09/13 03:11:47;;;;;;;8.47;5.57;;;;;;;12.09;100.00;96363.41;4991864;28;20093;-82
2021/09/13 03:14:13;;;;;;;7.57;5.03;;;;;;;11.99;100.00;96363.56;5002936;28;20036;-84
2021/09/13 03:16:42;;;;;;;7.17;5.40;;;;;;;11.85;100.00;96364.22;4992648;28;20376;-83
2021/09/13 03:19:08;;;;;;;9.37;5.57;;;;;;;11.89;100.00;96354.19;5009530;28;20042;-83
2021/09/13 03:21:33;;;;;;;8.07;4.97;;;;;;;12.02;100.00;96359.78;4993545;28;20024;-83
2021/09/13 03:24:03;;;;;;;9.93;7.40;;;;;;;11.88;100.00;96363.91;4996324;28;20056;-83
2021/09/13 03:26:29;;;;;;;12.10;8.50;;;;;;;11.82;100.00;96368.97;5009656;28;20037;-83
2021/09/13 03:28:55;;;;;;;9.10;6.97;;;;;;;11.81;100.00;96360.25;5032571;28;20160;-83
2021/09/13 03:31:21;;;;;;;10.53;7.63;;;;;;;11.87;100.00;96362.28;5005893;28;20049;-83
2021/09/13 03:33:47;;;;;;;8.87;6.90;;;;;;;11.89;100.00;96356.81;4995591;28;20479;-83
2021/09/13 03:36:13;;;;;;;9.90;6.50;;;;;;;11.91;100.00;96358.31;4985658;28;20029;-83
2021/09/13 03:38:41;;;;;;;10.53;5.87;;;;;;;12.02;100.00;96357.97;4993956;28;20025;-83
2021/09/13 03:41:16;;;;;;;6.60;3.33;;;;;;;12.15;100.00;96361.94;5012742;28;20029;-83
2021/09/13 03:43:42;;;;;;;7.90;5.13;;;;;;;12.18;100.00;96359.78;5010236;28;20049;-83
2021/09/13 03:46:08;;;;;;;8.80;5.70;;;;;;;12.16;100.00;96360.94;5009855;28;21251;-83
2021/09/13 03:48:42;;;;;;;8.13;5.63;;;;;;;12.18;100.00;96357.16;5005136;28;20431;-83
2021/09/13 03:51:07;;;;;;;8.50;5.13;;;;;;;12.17;100.00;96352.88;5002410;28;20048;-83
2021/09/13 03:53:33;;;;;;;7.70;5.63;;;;;;;12.13;100.00;96356.00;5013549;28;20518;-83
2021/09/13 03:56:03;;;;;;;8.43;6.30;;;;;;;12.12;100.00;96359.63;5006126;28;20044;-83
2021/09/13 03:58:30;;;;;;;8.93;6.43;;;;;;;12.03;100.00;96358.78;4994826;28;20359;-83
2021/09/13 04:00:56;;;;;;;10.07;6.83;;;;;;;12.05;100.00;96353.38;4998185;28;20021;-83
2021/09/13 04:03:32;;;;;;;12.33;7.80;;;;;;;12.00;100.00;96359.97;4983901;28;20040;-83
2021/09/13 04:05:59;;;;;;;12.43;8.03;;;;;;;11.95;100.00;96358.81;5011239;28;20029;-83
2021/09/13 04:11:54;;;;;;;11.27;7.97;;;;;;;11.97;100.00;96364.72;5024094;28;20121;-83
2021/09/13 04:14:38;;;;;;;10.53;7.00;;;;;;;11.94;100.00;96352.72;5008657;28;20082;-83
2021/09/13 04:17:24;;;;;;;12.93;7.43;;;;;;;11.92;100.00;96351.22;4977742;28;20037;-83
2021/09/13 04:20:16;;;;;;;9.50;7.10;;;;;;;11.94;100.00;96354.53;4988957;28;20037;-83
2021/09/13 04:23:02;;;;;;;9.03;6.07;;;;;;;11.94;100.00;96349.25;5014819;28;20037;-83
2021/09/13 04:25:35;;;;;;;9.45;7.28;;;;;;;11.96;100.00;96350.72;5042097;28;20120;-83
2021/09/13 04:28:21;;;;;;;10.10;6.97;;;;;;;11.93;100.00;96340.50;4996884;28;20516;-83
2021/09/13 04:30:53;;;;;;;11.00;6.70;;;;;;;12.00;100.00;96346.78;5003630;28;20037;-83
2021/09/13 04:33:34;;;;;;;10.47;6.70;;;;;;;11.99;100.00;96344.31;5031525;28;20060;-82
2021/09/13 04:36:17;;;;;;;7.80;6.23;;;;;;;11.95;100.00;96338.53;5016455;28;20394;-82
2021/09/13 04:39:23;;;;;;;9.47;6.13;;;;;;;11.94;100.00;96344.81;5032416;28;20496;-83
2021/09/13 04:42:12;;;;;;;8.87;5.37;;;;;;;12.08;100.00;96345.97;4997228;28;20128;-84
2021/09/13 04:45:13;;;;;;;9.10;5.73;;;;;;;12.17;100.00;96331.78;4965196;28;20087;-83
2021/09/13 04:47:58;;;;;;;7.83;5.10;;;;;;;12.16;100.00;96338.03;4990330;28;20128;-84
2021/09/13 04:50:35;;;;;;;7.77;5.03;;;;;;;12.13;100.00;96334.91;5008346;28;20029;-84
2021/09/13 04:53:22;;;;;;;9.00;6.20;;;;;;;12.26;100.00;96329.94;4997917;28;20038;-83
2021/09/13 04:55:48;;;;;;;7.90;5.67;;;;;;;12.27;100.00;96335.06;5004872;28;20045;-83
2021/09/13 04:58:17;;;;;;;9.90;6.00;;;;;;;12.29;100.00;96332.25;5000153;28;20010;-83
2021/09/13 05:00:45;;;;;;;9.70;6.17;;;;;;;12.30;100.00;96333.88;4999950;28;20033;-84
2021/09/13 05:03:11;;;;;;;7.97;5.70;;;;;;;12.38;100.00;96340.97;5009693;28;20021;-84
2021/09/13 05:05:37;;;;;;;7.37;5.50;;;;;;;12.31;100.00;96340.81;5006667;28;20552;-83
2021/09/13 05:08:03;;;;;;;8.73;5.60;;;;;;;12.41;100.00;96338.84;5011132;28;20912;-83
2021/09/13 05:10:29;;;;;;;10.17;5.13;;;;;;;12.39;100.00;96339.97;5006344;28;20034;-83
2021/09/13 05:12:54;;;;;;;10.30;4.87;;;;;;;12.40;100.00;96342.44;5000661;28;20018;-83
2021/09/13 05:15:21;;;;;;;11.10;4.70;;;;;;;12.20;100.00;96344.59;5005595;28;20061;-84
2021/09/13 05:17:47;;;;;;;8.33;5.20;;;;;;;12.26;100.00;96335.22;5011086;28;20009;-83
2021/09/13 05:20:14;;;;;;;8.40;5.30;;;;;;;12.43;100.00;96336.81;5021232;28;20076;-83
2021/09/13 05:22:41;;;;;;;7.40;4.87;;;;;;;12.38;100.00;96333.88;5000129;28;20029;-83
2021/09/13 05:25:09;;;;;;;7.63;5.03;;;;;;;12.48;100.00;96346.91;4991048;28;20541;-83
2021/09/13 05:27:35;;;;;;;9.43;5.43;;;;;;;12.40;100.00;96334.53;4976530;28;20033;-84
2021/09/13 05:30:03;;;;;;;7.33;4.60;;;;;;;12.58;100.00;96333.53;5011283;28;20476;-83
2021/09/13 05:32:30;;;;;;;9.23;4.80;;;;;;;12.80;100.00;96340.69;4987583;28;20022;-83
2021/09/13 05:34:56;;;;;;;7.07;4.67;;;;;;;12.78;100.00;96340.06;4988660;28;20033;-83
2021/09/13 05:37:22;;;;;;;7.00;4.27;;;;;;;12.93;100.00;96340.16;4988935;28;20072;-83
2021/09/13 05:39:48;;;;;;;8.57;5.67;;;;;;;12.96;100.00;96347.72;4986206;28;20033;-83
2021/09/13 05:42:18;;;;;;;15.17;11.20;;;;;;;12.92;100.00;96355.16;5004898;28;20029;-83
2021/09/13 05:44:46;;;;;;;7.23;5.37;;;;;;;12.93;100.00;96356.00;4991880;28;20041;-84
2021/09/13 05:47:12;;;;;;;9.83;5.00;;;;;;;12.73;100.00;96355.56;4995545;28;20188;-83
2021/09/13 05:49:38;;;;;;;8.30;5.03;;;;;;;12.73;100.00;96359.00;5006083;28;20030;-84
2021/09/13 05:52:06;;;;;;;8.83;4.97;;;;;;;12.87;100.00;96362.75;5013749;28;20117;-84
2021/09/13 05:54:45;;;;;;;11.03;5.30;;;;;;;12.87;100.00;96368.03;5015650;28;20034;-83
2021/09/13 05:57:11;;;;;;;7.47;5.00;;;;;;;12.85;100.00;96367.41;5004282;28;20025;-84
2021/09/13 05:59:37;;;;;;;9.07;4.53;;;;;;;12.83;100.00;96366.75;5012221;28;20036;-84
2021/09/13 06:02:14;;;;;;;6.73;4.33;;;;;;;12.87;100.00;96367.22;4991193;28;20041;-83
2021/09/13 06:05:07;;;;;;;7.60;4.90;;;;;;;12.80;100.00;96360.97;5004544;28;20034;-84
2021/09/13 06:07:34;;;;;;;6.97;4.80;;;;;;;12.73;100.00;96366.94;4993358;28;20033;-84
2021/09/13 06:10:01;;;;;;;9.90;5.37;;;;;;;12.82;100.00;96354.53;4996695;28;20064;-84
2021/09/13 06:12:54;;;;;;;8.27;5.27;;;;;;;12.90;100.00;96366.88;5005451;28;20513;-84
2021/09/13 06:15:20;;;;;;;10.83;5.10;;;;;;;12.84;100.00;96371.00;5011530;28;20037;-84
2021/09/13 06:17:46;;;;;;;7.07;4.90;;;;;;;12.92;100.00;96362.28;5029162;28;20025;-83
2021/09/13 06:20:15;;;;;;;8.03;5.30;;;;;;;12.84;100.00;96363.09;4990762;28;20022;-84
2021/09/13 06:22:43;;;;;;;8.53;5.70;;;;;;;13.56;100.00;96359.50;5003058;28;20083;-84
2021/09/13 06:25:13;;;;;;;7.60;5.37;;;;;;;13.75;100.00;96366.16;4991601;28;20033;-84
2021/09/13 06:27:42;;;;;;;7.30;5.33;;;;;;;13.68;100.00;96364.22;5003958;28;20038;-84
2021/09/13 06:30:08;;;;;;;10.67;7.63;;;;;;;13.91;100.00;96368.69;5005776;28;20034;-84
2021/09/13 06:32:35;;;;;;;8.80;6.40;;;;;;;13.90;100.00;96367.03;5013248;28;20109;-84
2021/09/13 06:35:01;;;;;;;9.03;5.73;;;;;;;13.88;100.00;96372.53;4995550;28;20034;-83
2021/09/13 06:37:41;;;;;;;7.03;5.10;;;;;;;13.64;100.00;96372.66;4989160;28;20033;-83
2021/09/13 06:40:10;;;;;;;7.83;5.37;;;;;;;13.80;100.00;96369.91;4990250;28;20048;-84
2021/09/13 06:42:36;;;;;;;7.20;4.80;;;;;;;13.84;100.00;96367.75;5001800;28;20440;-83
2021/09/13 06:45:11;;;;;;;8.30;5.37;;;;;;;14.03;100.00;96371.75;5017827;28;20403;-83
2021/09/13 06:47:45;;;;;;;8.03;4.80;;;;;;;14.55;100.00;96374.47;4994601;28;20030;-83
2021/09/13 06:51:03;;;;;;;8.25;4.75;;;;;;;14.87;97.96;96375.13;5029455;28;20549;-84
2021/09/13 06:57:17;;;;;;;6.50;4.50;;;;;;;15.36;95.31;96373.69;5020086;28;20037;-83
2021/09/13 06:59:43;;;;;;;8.43;4.70;;;;;;;14.99;95.33;96378.13;5006779;28;20043;-84
2021/09/13 07:02:09;;;;;;;9.23;4.90;;;;;;;15.04;98.25;96383.69;5013875;28;20356;-83
2021/09/13 07:04:34;;;;;;;6.50;4.90;;;;;;;15.48;95.88;96377.50;4990426;28;20097;-84
2021/09/13 07:07:00;;;;;;;6.30;4.32;;;;;;;15.34;95.51;96381.84;4979936;28;20451;-83
2021/09/13 07:09:26;;;;;;;6.38;4.28;;;;;;;15.62;95.26;96384.59;5011509;28;20041;-84
2021/09/13 07:11:52;;;;;;;6.15;4.28;;;;;;;15.76;93.69;96390.91;5016722;28;20172;-83
2021/09/13 07:14:18;;;;;;;6.25;4.28;;;;;;;15.67;94.48;96397.34;5027635;28;20034;-84
2021/09/13 07:16:44;;;;;;;6.07;3.85;;;;;;;15.67;93.08;96392.84;5024137;28;20032;-83
2021/09/13 07:19:10;;;;;;;7.53;4.43;;;;;;;15.57;94.68;96400.25;5006321;28;20041;-83
2021/09/13 07:21:37;;;;;;;6.35;4.47;;;;;;;15.55;94.87;96396.97;5005588;28;20030;-83
2021/09/13 07:24:02;;;;;;;7.78;4.50;;;;;;;15.35;96.53;96402.03;4984226;28;20033;-84
2021/09/13 07:26:28;;;;;;;7.82;4.80;;;;;;;15.38;96.48;96403.50;4990728;28;20432;-84
2021/09/13 07:28:54;;;;;;;7.07;3.85;;;;;;;15.57;95.99;96397.59;4984238;28;20025;-83
2021/09/13 07:31:20;;;;;;;6.80;4.50;;;;;;;15.71;95.31;96403.91;5023843;28;20025;-84
2021/09/13 07:33:46;;;;;;;8.27;4.63;;;;;;;15.74;95.29;96404.34;5004769;28;20376;-84
2021/09/13 07:36:12;;;;;;;6.43;4.57;;;;;;;15.86;95.15;96401.19;5003693;28;20044;-84
2021/09/13 07:38:37;;;;;;;7.03;4.38;;;;;;;16.01;94.25;96397.50;4998532;28;20484;-83
2021/09/13 07:41:03;;;;;;;11.80;9.23;;;;;;;16.21;94.44;96400.34;5024125;28;20034;-84
2021/09/13 07:43:35;;;;;;;7.68;4.53;;;;;;;15.87;96.42;96408.16;4994162;28;20053;-84
2021/09/13 07:46:01;;;;;;;9.48;6.40;;;;;;;16.11;96.24;96410.44;4999124;28;20049;-84
2021/09/13 07:48:26;;;;;;;7.32;4.15;;;;;;;16.88;91.11;96415.00;4994088;28;20117;-85
2021/09/13 07:50:52;;;;;;;7.43;4.43;;;;;;;17.87;87.08;96397.88;5000114;28;20034;-85
2021/09/13 07:53:18;;;;;;;6.13;4.25;;;;;;;17.55;86.17;96404.72;5014841;28;20032;-84
2021/09/13 07:55:44;;;;;;;15.00;5.35;;;;;;;17.46;86.69;96411.22;5017013;28;20502;-84
2021/09/13 07:58:09;;;;;;;12.10;5.28;;;;;;;18.16;83.61;96409.22;5005536;28;20036;-83
2021/09/13 08:00:35;;;;;;;5.22;3.65;;;;;;;18.54;80.73;96402.28;5000405;28;20034;-84
2021/09/13 08:03:01;;;;;;;9.73;3.97;;;;;;;18.64;81.87;96406.34;5008002;28;20025;-84
2021/09/13 08:05:27;;;;;;;5.18;3.40;;;;;;;19.51;76.91;96408.66;4985577;28;20407;-84
2021/09/13 08:07:52;;;;;;;6.80;3.60;;;;;;;19.29;76.00;96404.66;4997223;28;20390;-84
2021/09/13 08:10:18;;;;;;;9.10;3.92;;;;;;;19.41;74.71;96402.97;5007119;28;20084;-84
2021/09/13 08:12:44;;;;;;;5.30;3.75;;;;;;;21.02;68.80;96388.38;4987337;28;20040;-84
2021/09/13 08:15:11;;;;;;;7.38;3.42;;;;;;;21.41;64.61;96397.88;4988263;28;20036;-85
2021/09/13 08:17:37;;;;;;;6.32;2.97;;;;;;;22.03;62.93;96396.88;4979428;28;20013;-84
2021/09/13 08:20:04;;;;;;;4.85;3.03;;;;;;;22.39;61.70;96397.84;5018494;28;20038;-84
2021/09/13 08:22:30;;;;;;;5.00;3.67;;;;;;;22.24;63.31;96404.44;5004534;28;20021;-84
2021/09/13 08:24:57;;;;;;;6.30;4.10;;;;;;;23.46;59.36;96408.38;5006122;28;20037;-84
2021/09/13 08:27:46;;;;;;;6.85;3.47;;;;;;;24.10;56.81;96403.75;4980308;28;20034;-84
2021/09/13 08:30:12;;;;;;;5.20;3.28;;;;;;;23.80;56.83;96403.19;5014208;28;20503;-84
2021/09/13 08:32:37;;;;;;;5.95;3.47;;;;;;;24.55;55.81;96404.88;5006601;28;20074;-84
2021/09/13 08:35:03;;;;;;;6.85;4.65;;;;;;;24.72;56.01;96400.31;5005848;28;20039;-85
2021/09/13 08:37:29;;;;;;;5.32;3.00;;;;;;;24.49;53.67;96408.53;5004523;28;20016;-85
2021/09/13 08:39:55;;;;;;;4.10;2.67;;;;;;;25.61;52.49;96402.09;5030290;28;20116;-85
2021/09/13 08:42:21;;;;;;;6.38;3.03;;;;;;;24.13;55.85;96411.34;4990634;28;20022;-85
2021/09/13 08:44:50;;;;;;;5.78;2.75;;;;;;;25.40;53.34;96406.41;5005228;28;20112;-84
2021/09/13 08:47:24;;;;;;;4.88;2.60;;;;;;;25.83;51.88;96404.84;5008015;28;20032;-85
2021/09/13 08:53:53;;;;;;;5.63;2.85;;;;;;;25.04;52.31;96408.56;5020396;28;20573;-85
2021/09/13 08:56:23;;;;;;;5.80;2.70;;;;;;;25.44;51.56;96410.25;4997831;28;20034;-84
2021/09/13 08:58:49;;;;;;;3.92;2.25;;;;;;;25.38;50.95;96403.16;4989226;28;20376;-85
2021/09/13 09:01:53;;;;;;;5.05;2.40;;;;;;;24.81;53.40;96411.44;4992121;28;20041;-85
2021/09/13 09:04:19;;;;;;;5.38;2.33;;;;;;;24.58;52.61;96420.47;4984321;28;20116;-85
2021/09/13 09:06:46;;;;;;;5.13;2.63;;;;;;;24.37;50.39;96420.09;5006854;28;20029;-84
2021/09/13 09:09:17;;;;;;;5.88;2.40;;;;;;;24.79;50.06;96410.91;5001795;28;20499;-84
2021/09/13 09:12:09;;;;;;;4.32;2.63;;;;;;;24.75;50.53;96413.25;5003440;28;20044;-85
2021/09/13 09:14:43;;;;;;;9.75;8.00;;;;;;;25.92;47.43;96411.38;5013301;28;20037;-85
2021/09/13 09:17:19;;;;;;;4.22;2.55;;;;;;;25.20;47.67;96411.53;5007193;28;20461;-85
2021/09/13 09:19:45;;;;;;;4.97;2.58;;;;;;;24.26;51.00;96414.81;5006327;28;20126;-84
2021/09/13 09:22:26;;;;;;;5.45;2.20;;;;;;;25.49;47.71;96409.50;5006484;28;20029;-85
2021/09/13 09:24:55;;;;;;;4.97;2.70;;;;;;;26.13;45.82;96403.56;4990651;28;20443;-84
2021/09/13 09:27:22;;;;;;;5.55;2.20;;;;;;;26.22;46.06;96407.41;5020302;28;20033;-85
2021/09/13 09:29:48;;;;;;;5.15;2.38;;;;;;;25.80;47.23;96408.03;4992917;28;20035;-84
2021/09/13 09:32:27;;;;;;;5.28;2.60;;;;;;;26.27;45.80;96397.47;5001973;28;20022;-84
2021/09/13 09:34:54;;;;;;;3.75;2.03;;;;;;;28.08;42.94;96401.94;4997405;28;20522;-85
2021/09/13 09:37:24;;;;;;;8.20;2.28;;;;;;;27.95;43.36;96400.53;5009484;28;20053;-85
2021/09/13 09:39:55;;;;;;;5.15;2.63;;;;;;;28.44;40.95;96399.31;5022623;28;20037;-85
2021/09/13 09:42:32;;;;;;;6.25;2.80;;;;;;;25.44;46.33;96407.53;4988279;28;20377;-84
2021/09/13 09:45:00;;;;;;;4.43;2.40;;;;;;;25.87;46.28;96411.34;5004592;28;20033;-85
2021/09/13 09:47:26;;;;;;;3.53;2.28;;;;;;;26.14;44.43;96408.66;5013641;28;20415;-84
2021/09/13 09:49:54;;;;;;;4.63;2.38;;;;;;;25.77;45.86;96412.00;5030224;28;20032;-84
2021/09/13 09:52:32;;;;;;;5.30;2.88;;;;;;;24.92;48.36;96408.69;4997942;28;20125;-84
2021/09/13 09:55:15;;;;;;;5.03;2.90;;;;;;;24.94;47.82;96403.03;4986251;28;20038;-84
2021/09/13 09:57:46;;;;;;;3.38;2.28;;;;;;;25.42;47.71;96404.31;4999456;28;20025;-84
2021/09/13 10:00:27;;;;;;;4.72;2.47;;;;;;;26.80;43.58;96395.81;5005654;28;20118;-84
2021/09/13 10:02:56;;;;;;;3.65;2.47;;;;;;;27.09;42.50;96390.06;4985405;28;20045;-84
2021/09/13 10:05:24;;;;;;;7.18;2.45;;;;;;;27.39;42.20;96389.47;5001837;28;20085;-84
2021/09/13 10:07:51;;;;;;;3.97;2.40;;;;;;;27.91;41.64;96391.34;4989668;28;20041;-84
2021/09/13 10:10:18;;;;;;;5.30;2.67;;;;;;;27.67;41.75;96390.16;5007381;28;20091;-84
2021/09/13 10:12:45;;;;;;;4.57;2.65;;;;;;;27.16;42.99;96379.06;5008690;28;20038;-84
2021/09/13 10:15:11;;;;;;;5.13;2.70;;;;;;;27.16;41.96;96379.91;5000854;28;20061;-84
2021/09/13 10:17:37;;;;;;;5.07;2.85;;;;;;;27.87;40.71;96378.63;5006355;28;20060;-83
2021/09/13 10:20:13;;;;;;;3.78;2.45;;;;;;;28.62;39.86;96384.44;5007735;28;20108;-84
2021/09/13 10:22:45;;;;;;;5.18;2.67;;;;;;;28.57;39.95;96381.72;5005061;28;20030;-83
2021/09/13 10:25:12;;;;;;;3.25;2.40;;;;;;;27.76;42.23;96376.91;4992929;28;20056;-84
2021/09/13 10:27:46;;;;;;;3.65;2.38;;;;;;;27.62;41.98;96376.59;5009502;28;20028;-84
2021/09/13 10:30:20;;;;;;;3.58;2.70;;;;;;;27.72;41.45;96384.75;5020928;28;20432;-84
2021/09/13 10:32:48;;;;;;;5.68;2.67;;;;;;;27.95;41.73;96383.50;5006937;28;20090;-84
2021/09/13 10:35:16;;;;;;;3.40;2.60;;;;;;;28.95;40.50;96368.72;5002741;28;20033;-84
2021/09/13 10:37:52;;;;;;;5.65;2.88;;;;;;;28.40;40.98;96363.06;5004779;28;20472;-83
2021/09/13 10:40:25;;;;;;;3.25;2.45;;;;;;;27.92;41.19;96370.53;4994471;28;20036;-83
2021/09/13 10:42:59;;;;;;;3.85;2.80;;;;;;;26.62;44.23;96371.13;5014144;28;20634;-83
2021/09/13 10:45:34;;;;;;;4.55;2.95;;;;;;;27.93;42.17;96364.03;5010241;28;20033;-83
2021/09/13 10:48:02;;;;;;;3.78;2.80;;;;;;;28.59;41.23;96360.63;4998938;28;20052;-83
2021/09/13 10:50:47;;;;;;;4.40;2.90;;;;;;;27.20;43.14;96359.41;4984897;28;20032;-84
2021/09/13 10:53:19;;;;;;;6.07;2.83;;;;;;;28.65;40.64;96360.34;5023860;28;20061;-81
2021/09/13 10:55:48;;;;;;;4.38;2.92;;;;;;;28.87;40.54;96351.13;5004434;28;20033;-81
2021/09/13 10:58:18;;;;;;;4.38;3.03;;;;;;;28.31;41.45;96362.75;4998641;28;20017;-81
2021/09/13 11:00:44;;;;;;;3.90;2.67;;;;;;;29.10;39.71;96355.19;5021232;28;20033;-81
2021/09/13 11:03:23;;;;;;;5.40;2.78;;;;;;;27.09;42.58;96356.88;4990496;28;20479;-81
2021/09/13 11:06:04;;;;;;;5.00;2.97;;;;;;;26.47;44.39;96355.59;4999399;28;20057;-84
2021/09/13 11:08:43;;;;;;;6.50;4.72;;;;;;;27.76;43.26;96364.25;4998464;28;20056;-83
2021/09/13 11:11:27;;;;;;;3.90;2.72;;;;;;;28.72;40.32;96348.44;5023712;28;20037;-83
2021/09/13 11:14:20;;;;;;;4.07;2.35;;;;;;;28.96;39.86;96345.97;4994749;28;20029;-84
2021/09/13 11:16:48;;;;;;;5.35;2.97;;;;;;;28.19;41.49;96345.97;4999203;28;20030;-83
2021/09/13 11:19:17;;;;;;;5.95;3.15;;;;;;;26.95;43.58;96351.13;5003731;28;20032;-84
2021/09/13 11:22:02;;;;;;;5.50;3.40;;;;;;;26.33;45.40;96350.63;5004852;28;20022;-83
2021/09/13 11:24:37;;;;;;;4.78;2.90;;;;;;;26.31;45.59;96347.38;5001102;28;20033;-84
2021/09/13 11:27:13;;;;;;;5.30;3.92;;;;;;;26.49;45.48;96334.59;5004191;28;20129;-83
2021/09/13 11:29:46;;;;;;;5.15;3.08;;;;;;;26.74;45.66;96339.38;5015416;28;20091;-85
2021/09/13 11:32:16;;;;;;;3.80;2.88;;;;;;;27.18;43.82;96333.75;5005455;28;20149;-84
2021/09/13 11:34:50;;;;;;;5.43;3.35;;;;;;;26.89;44.32;96330.56;5003701;28;20221;-84
2021/09/13 11:37:30;;;;;;;4.93;2.88;;;;;;;25.64;47.94;96334.28;4982831;28;20025;-84
2021/09/13 11:40:00;;;;;;;7.43;3.15;;;;;;;25.34;48.33;96342.81;5003702;28;20426;-83
2021/09/13 11:42:29;;;;;;;7.13;2.67;;;;;;;27.21;44.34;96335.91;4998949;28;20879;-83
2021/09/13 11:45:07;;;;;;;5.60;3.00;;;;;;;27.60;43.02;96333.66;4987737;28;20495;-83
2021/09/13 11:47:35;;;;;;;5.32;3.22;;;;;;;26.31;45.13;96333.09;5025030;28;20104;-84
2021/09/13 11:50:06;;;;;;;7.03;3.40;;;;;;;26.95;44.52;96329.53;5011454;28;20454;-83
2021/09/13 11:52:36;;;;;;;4.90;3.10;;;;;;;27.62;43.02;96334.19;4987677;28;20124;-83
2021/09/13 11:55:17;;;;;;;4.60;2.75;;;;;;;29.16;40.20;96323.50;4986556;28;20103;-83
2021/09/13 11:57:51;;;;;;;4.18;2.55;;;;;;;29.80;38.45;96320.78;5018572;28;20028;-83